sensor_id;sensor_type;location;lat;lon;timestamp;pressure;altitude;pressure_sealevel;temperature;humidity
46392;BME280;32098;49.448;7.904;2022-09-09T00:02:18;97717.94;;;14.21;72.63
46392;BME280;32098;49.448;7.904;2022-09-09T00:05:04;97716.38;;;14.25;72.38
46392;BME280;32098;49.448;7.904;2022-09-09T00:08:09;97711.25;;;14.28;72.46
46392;BME280;32098;49.448;7.904;2022-09-09T00:10:34;97711.81;;;14.36;72.08
46392;BME280;32098;49.448;7.904;2022-09-09T00:13:13;97710.75;;;14.42;71.67
46392;BME280;32098;49.448;7.904;2022-09-09T00:18:54;97703.78;;;14.46;71.40
46392;BME280;32098;49.448;7.904;2022-09-09T00:21:44;97693.81;;;14.46;70.87
46392;BME280;32098;49.448;7.904;2022-09-09T00:24:28;97704.31;;;14.43;71.26
46392;BME280;32098;49.448;7.904;2022-09-09T00:27:06;97700.50;;;14.23;71.50
46392;BME280;32098;49.448;7.904;2022-09-09T00:29:33;97698.34;;;14.10;72.08
46392;BME280;32098;49.448;7.904;2022-09-09T00:32:20;97701.53;;;14.02;71.90
46392;BME280;32098;49.448;7.904;2022-09-09T00:35:00;97701.56;;;14.12;71.84
46392;BME280;32098;49.448;7.904;2022-09-09T00:37:29;97704.78;;;14.19;71.63
46392;BME280;32098;49.448;7.904;2022-09-09T00:40:00;97697.81;;;14.13;71.88
46392;BME280;32098;49.448;7.904;2022-09-09T00:42:39;97701.84;;;14.26;71.42
46392;BME280;32098;49.448;7.904;2022-09-09T00:48:04;97708.00;;;14.16;71.67
46392;BME280;32098;49.448;7.904;2022-09-09T00:53:24;97711.22;;;14.08;72.16
46392;BME280;32098;49.448;7.904;2022-09-09T00:58:26;97704.22;;;14.07;72.15
46392;BME280;32098;49.448;7.904;2022-09-09T01:01:13;97710.13;;;14.09;72.02
46392;BME280;32098;49.448;7.904;2022-09-09T01:06:30;97707.47;;;14.14;71.99
46392;BME280;32098;49.448;7.904;2022-09-09T01:17:29;97704.53;;;14.16;71.77
46392;BME280;32098;49.448;7.904;2022-09-09T01:28:24;97692.47;;;14.18;71.65
46392;BME280;32098;49.448;7.904;2022-09-09T01:30:57;97699.97;;;14.21;71.63
46392;BME280;32098;49.448;7.904;2022-09-09T01:33:26;97699.69;;;14.18;71.88
46392;BME280;32098;49.448;7.904;2022-09-09T01:36:00;97688.16;;;14.17;71.58
46392;BME280;32098;49.448;7.904;2022-09-09T01:38:36;97688.94;;;14.13;71.87
46392;BME280;32098;49.448;7.904;2022-09-09T01:41:03;97688.97;;;14.18;71.79
46392;BME280;32098;49.448;7.904;2022-09-09T01:43:40;97690.53;;;14.14;71.78
46392;BME280;32098;49.448;7.904;2022-09-09T01:46:07;97693.78;;;14.21;71.72
46392;BME280;32098;49.448;7.904;2022-09-09T01:48:35;97683.59;;;14.18;71.46
46392;BME280;32098;49.448;7.904;2022-09-09T01:51:09;97701.06;;;14.25;71.54
46392;BME280;32098;49.448;7.904;2022-09-09T01:53:41;97661.28;;;14.07;71.65
46392;BME280;32098;49.448;7.904;2022-09-09T01:56:21;97696.22;;;14.33;71.09
46392;BME280;32098;49.448;7.904;2022-09-09T02:04:48;97695.97;;;14.34;71.29
46392;BME280;32098;49.448;7.904;2022-09-09T02:07:38;97699.97;;;14.31;71.19
46392;BME280;32098;49.448;7.904;2022-09-09T02:13:07;97688.44;;;14.41;70.85
46392;BME280;32098;49.448;7.904;2022-09-09T02:15:44;97696.25;;;14.43;70.80
46392;BME280;32098;49.448;7.904;2022-09-09T02:18:13;97701.09;;;14.46;70.87
46392;BME280;32098;49.448;7.904;2022-09-09T02:20:43;97688.72;;;14.45;70.55
46392;BME280;32098;49.448;7.904;2022-09-09T02:23:12;97695.72;;;14.46;70.79
46392;BME280;32098;49.448;7.904;2022-09-09T02:25:40;97695.16;;;14.49;70.44
46392;BME280;32098;49.448;7.904;2022-09-09T02:28:17;97685.50;;;14.43;70.96
46392;BME280;32098;49.448;7.904;2022-09-09T02:30:48;97685.22;;;14.44;70.86
46392;BME280;32098;49.448;7.904;2022-09-09T02:33:20;97679.84;;;14.29;71.21
46392;BME280;32098;49.448;7.904;2022-09-09T02:35:51;97682.00;;;14.37;71.03
46392;BME280;32098;49.448;7.904;2022-09-09T02:38:24;97694.63;;;14.42;70.89
46392;BME280;32098;49.448;7.904;2022-09-09T02:41:01;97690.88;;;14.33;71.13
46392;BME280;32098;49.448;7.904;2022-09-09T02:43:35;97691.69;;;14.33;70.85
46392;BME280;32098;49.448;7.904;2022-09-09T02:49:01;97664.78;;;14.23;70.93
46392;BME280;32098;49.448;7.904;2022-09-09T02:56:52;97686.56;;;14.42;70.73
46392;BME280;32098;49.448;7.904;2022-09-09T02:59:26;97688.19;;;14.38;70.64
46392;BME280;32098;49.448;7.904;2022-09-09T03:01:53;97681.19;;;14.37;70.72
46392;BME280;32098;49.448;7.904;2022-09-09T03:04:19;97680.13;;;14.33;70.74
46392;BME280;32098;49.448;7.904;2022-09-09T03:06:47;97673.13;;;14.31;70.67
46392;BME280;32098;49.448;7.904;2022-09-09T03:09:18;97681.72;;;14.28;70.54
46392;BME280;32098;49.448;7.904;2022-09-09T03:11:44;97685.75;;;14.36;70.59
46392;BME280;32098;49.448;7.904;2022-09-09T03:14:13;97685.75;;;14.36;70.51
46392;BME280;32098;49.448;7.904;2022-09-09T03:16:40;97681.69;;;14.23;71.39
46392;BME280;32098;49.448;7.904;2022-09-09T03:19:06;97692.44;;;14.23;71.37
46392;BME280;32098;49.448;7.904;2022-09-09T03:21:33;97694.56;;;14.16;71.00
46392;BME280;32098;49.448;7.904;2022-09-09T03:23:59;97695.66;;;14.10;71.35
46392;BME280;32098;49.448;7.904;2022-09-09T03:26:26;97688.38;;;14.01;71.66
46392;BME280;32098;49.448;7.904;2022-09-09T03:28:54;97686.75;;;14.00;71.45
46392;BME280;32098;49.448;7.904;2022-09-09T03:31:22;97704.75;;;14.04;71.48
46392;BME280;32098;49.448;7.904;2022-09-09T03:33:50;97700.50;;;14.08;71.44
46392;BME280;32098;49.448;7.904;2022-09-09T03:36:18;97693.78;;;14.06;71.45
46392;BME280;32098;49.448;7.904;2022-09-09T03:38:44;97703.19;;;14.08;71.50
46392;BME280;32098;49.448;7.904;2022-09-09T03:41:11;97642.94;;;13.79;71.25
46392;BME280;32098;49.448;7.904;2022-09-09T03:43:39;97694.56;;;14.11;71.69
46392;BME280;32098;49.448;7.904;2022-09-09T03:46:06;97689.75;;;14.13;71.33
46392;BME280;32098;49.448;7.904;2022-09-09T03:48:33;97702.63;;;14.11;71.70
46392;BME280;32098;49.448;7.904;2022-09-09T03:51:00;97696.47;;;14.16;71.12
46392;BME280;32098;49.448;7.904;2022-09-09T03:53:29;97680.56;;;13.99;71.20
46392;BME280;32098;49.448;7.904;2022-09-09T03:55:57;97696.72;;;14.09;71.28
46392;BME280;32098;49.448;7.904;2022-09-09T03:58:27;97687.63;;;14.15;71.32
46392;BME280;32098;49.448;7.904;2022-09-09T04:01:01;97702.38;;;14.13;71.45
46392;BME280;32098;49.448;7.904;2022-09-09T04:03:28;97695.13;;;14.08;71.79
46392;BME280;32098;49.448;7.904;2022-09-09T04:05:57;97689.47;;;14.05;71.97
46392;BME280;32098;49.448;7.904;2022-09-09T04:08:26;97688.41;;;14.11;71.91
46392;BME280;32098;49.448;7.904;2022-09-09T04:10:53;97695.13;;;14.08;72.17
46392;BME280;32098;49.448;7.904;2022-09-09T04:13:25;97696.72;;;14.14;71.73
46392;BME280;32098;49.448;7.904;2022-09-09T04:15:55;97693.75;;;14.01;72.52
46392;BME280;32098;49.448;7.904;2022-09-09T04:18:23;97681.13;;;14.06;72.20
46392;BME280;32098;49.448;7.904;2022-09-09T04:20:51;97702.09;;;14.09;71.75
46392;BME280;32098;49.448;7.904;2022-09-09T04:23:21;97703.41;;;14.07;72.03
46392;BME280;32098;49.448;7.904;2022-09-09T04:25:52;97708.78;;;14.07;72.02
46392;BME280;32098;49.448;7.904;2022-09-09T04:28:21;97704.50;;;14.01;72.41
46392;BME280;32098;49.448;7.904;2022-09-09T04:30:48;97652.56;;;13.65;72.94
46392;BME280;32098;49.448;7.904;2022-09-09T04:33:15;97703.66;;;13.95;73.03
46392;BME280;32098;49.448;7.904;2022-09-09T04:35:46;97701.78;;;13.96;72.81
46392;BME280;32098;49.448;7.904;2022-09-09T04:38:15;97709.06;;;14.00;72.70
46392;BME280;32098;49.448;7.904;2022-09-09T04:40:46;97716.28;;;14.00;73.10
46392;BME280;32098;49.448;7.904;2022-09-09T04:43:14;97718.69;;;13.96;73.07
46392;BME280;32098;49.448;7.904;2022-09-09T04:45:43;97719.00;;;14.05;72.80
46392;BME280;32098;49.448;7.904;2022-09-09T04:48:10;97714.16;;;14.02;72.87
46392;BME280;32098;49.448;7.904;2022-09-09T04:50:37;97720.34;;;14.07;72.84
46392;BME280;32098;49.448;7.904;2022-09-09T04:53:04;97725.19;;;14.05;73.02
46392;BME280;32098;49.448;7.904;2022-09-09T04:55:34;97719.28;;;14.03;72.77
46392;BME280;32098;49.448;7.904;2022-09-09T04:58:05;97717.66;;;14.02;73.47
46392;BME280;32098;49.448;7.904;2022-09-09T05:00:34;97727.88;;;14.10;73.37
46392;BME280;32098;49.448;7.904;2022-09-09T05:03:05;97727.06;;;14.05;73.57
46392;BME280;32098;49.448;7.904;2022-09-09T05:05:34;97727.34;;;14.13;73.37
46392;BME280;32098;49.448;7.904;2022-09-09T05:08:07;97732.44;;;14.15;73.13
46392;BME280;32098;49.448;7.904;2022-09-09T05:10:37;97727.88;;;14.15;73.50
46392;BME280;32098;49.448;7.904;2022-09-09T05:13:04;97733.00;;;14.22;73.27
46392;BME280;32098;49.448;7.904;2022-09-09T05:15:31;97739.19;;;14.22;73.13
46392;BME280;32098;49.448;7.904;2022-09-09T05:17:59;97716.59;;;14.08;73.54
46392;BME280;32098;49.448;7.904;2022-09-09T05:20:28;97729.50;;;14.16;73.41
46392;BME280;32098;49.448;7.904;2022-09-09T05:22:56;97729.50;;;14.21;73.31
46392;BME280;32098;49.448;7.904;2022-09-09T05:25:26;97733.78;;;14.12;73.84
46392;BME280;32098;49.448;7.904;2022-09-09T05:27:54;97734.84;;;14.16;73.72
46392;BME280;32098;49.448;7.904;2022-09-09T05:30:21;97736.19;;;14.14;73.77
46392;BME280;32098;49.448;7.904;2022-09-09T05:32:50;97740.22;;;14.11;74.11
46392;BME280;32098;49.448;7.904;2022-09-09T05:35:17;97735.41;;;14.08;74.17
46392;BME280;32098;49.448;7.904;2022-09-09T05:37:45;97727.34;;;14.13;73.94
46392;BME280;32098;49.448;7.904;2022-09-09T05:40:12;97736.50;;;14.17;74.21
46392;BME280;32098;49.448;7.904;2022-09-09T05:42:39;97739.44;;;14.16;74.20
46392;BME280;32098;49.448;7.904;2022-09-09T05:45:07;97671.91;;;13.77;74.41
46392;BME280;32098;49.448;7.904;2022-09-09T05:47:36;97740.53;;;14.25;74.15
46392;BME280;32098;49.448;7.904;2022-09-09T05:50:06;97737.59;;;14.31;73.89
46392;BME280;32098;49.448;7.904;2022-09-09T05:52:35;97739.78;;;14.50;73.70
46392;BME280;32098;49.448;7.904;2022-09-09T05:55:03;97746.56;;;14.77;73.27
46392;BME280;32098;49.448;7.904;2022-09-09T05:57:30;97750.88;;;15.04;72.44
46392;BME280;32098;49.448;7.904;2022-09-09T05:59:57;97750.06;;;15.23;70.44
46392;BME280;32098;49.448;7.904;2022-09-09T06:02:23;97748.44;;;15.22;69.96
46392;BME280;32098;49.448;7.904;2022-09-09T06:04:50;97757.56;;;15.21;69.88
46392;BME280;32098;49.448;7.904;2022-09-09T06:07:17;97760.81;;;15.18;70.26
46392;BME280;32098;49.448;7.904;2022-09-09T06:09:43;97771.03;;;15.11;70.65
46392;BME280;32098;49.448;7.904;2022-09-09T06:12:11;97770.50;;;14.89;71.24
46392;BME280;32098;49.448;7.904;2022-09-09T06:14:37;97767.28;;;14.97;71.11
46392;BME280;32098;49.448;7.904;2022-09-09T06:17:08;97769.97;;;14.92;71.52
46392;BME280;32098;49.448;7.904;2022-09-09T06:19:35;97760.28;;;14.91;71.98
46392;BME280;32098;49.448;7.904;2022-09-09T06:22:02;97780.47;;;14.99;73.01
46392;BME280;32098;49.448;7.904;2022-09-09T06:24:32;97779.09;;;14.81;73.99
46392;BME280;32098;49.448;7.904;2022-09-09T06:27:00;97773.72;;;14.71;74.44
46392;BME280;32098;49.448;7.904;2022-09-09T06:29:31;97764.84;;;14.70;74.36
46392;BME280;32098;49.448;7.904;2022-09-09T06:31:58;97694.91;;;14.35;76.22
46392;BME280;32098;49.448;7.904;2022-09-09T06:34:26;97758.66;;;14.85;75.94
46392;BME280;32098;49.448;7.904;2022-09-09T06:36:55;97756.00;;;15.05;76.26
46392;BME280;32098;49.448;7.904;2022-09-09T06:39:25;97754.88;;;15.26;74.75
46392;BME280;32098;49.448;7.904;2022-09-09T06:41:52;97757.56;;;15.56;74.60
46392;BME280;32098;49.448;7.904;2022-09-09T06:44:45;97758.06;;;15.79;72.83
46392;BME280;32098;49.448;7.904;2022-09-09T06:47:19;97752.09;;;15.82;72.08
46392;BME280;32098;49.448;7.904;2022-09-09T06:49:46;97757.22;;;15.88;72.76
46392;BME280;32098;49.448;7.904;2022-09-09T06:52:14;97756.16;;;15.79;72.10
46392;BME280;32098;49.448;7.904;2022-09-09T06:54:40;97755.09;;;15.75;72.53
46392;BME280;32098;49.448;7.904;2022-09-09T06:57:07;97758.31;;;15.72;72.63
46392;BME280;32098;49.448;7.904;2022-09-09T06:59:55;97755.41;;;15.64;73.23
46392;BME280;32098;49.448;7.904;2022-09-09T07:02:21;97755.91;;;15.71;73.45
46392;BME280;32098;49.448;7.904;2022-09-09T07:04:48;97752.69;;;15.74;72.16
46392;BME280;32098;49.448;7.904;2022-09-09T07:07:17;97761.28;;;15.81;72.17
46392;BME280;32098;49.448;7.904;2022-09-09T07:09:44;97741.78;;;15.99;72.95
46392;BME280;32098;49.448;7.904;2022-09-09T07:12:12;97747.44;;;16.61;71.51
46392;BME280;32098;49.448;7.904;2022-09-09T07:14:45;97751.91;;;17.43;69.02
46392;BME280;32098;49.448;7.904;2022-09-09T07:17:12;97756.09;;;17.83;65.68
46392;BME280;32098;49.448;7.904;2022-09-09T07:19:39;97751.19;;;17.85;65.01
46392;BME280;32098;49.448;7.904;2022-09-09T07:22:05;97748.72;;;17.89;65.20
46392;BME280;32098;49.448;7.904;2022-09-09T07:24:35;97745.81;;;18.28;65.20
46392;BME280;32098;49.448;7.904;2022-09-09T07:27:01;97749.81;;;18.54;63.06
46392;BME280;32098;49.448;7.904;2022-09-09T07:29:29;97753.81;;;18.56;63.04
46392;BME280;32098;49.448;7.904;2022-09-09T07:31:56;97709.59;;;18.29;62.89
46392;BME280;32098;49.448;7.904;2022-09-09T07:34:28;97757.41;;;18.89;62.19
46392;BME280;32098;49.448;7.904;2022-09-09T07:36:55;97763.03;;;18.74;61.10
46392;BME280;32098;49.448;7.904;2022-09-09T07:39:24;97766.41;;;18.66;61.96
46392;BME280;32098;49.448;7.904;2022-09-09T07:41:52;97767.81;;;18.40;63.20
46392;BME280;32098;49.448;7.904;2022-09-09T07:44:23;97759.78;;;18.16;63.40
46392;BME280;32098;49.448;7.904;2022-09-09T07:47:00;97760.31;;;17.89;64.04
46392;BME280;32098;49.448;7.904;2022-09-09T07:49:33;97754.69;;;17.62;63.84
46392;BME280;32098;49.448;7.904;2022-09-09T07:52:02;97751.00;;;17.53;63.89
46392;BME280;32098;49.448;7.904;2022-09-09T07:54:30;97761.66;;;17.39;64.10
46392;BME280;32098;49.448;7.904;2022-09-09T07:56:59;97770.09;;;17.33;64.49
46392;BME280;32098;49.448;7.904;2022-09-09T07:59:28;97772.59;;;17.53;65.28
46392;BME280;32098;49.448;7.904;2022-09-09T08:01:57;97779.81;;;17.86;64.76
46392;BME280;32098;49.448;7.904;2022-09-09T08:04:27;97777.19;;;18.29;64.33
46392;BME280;32098;49.448;7.904;2022-09-09T08:06:59;97779.09;;;18.65;62.52
46392;BME280;32098;49.448;7.904;2022-09-09T08:09:29;97774.69;;;19.25;60.66
46392;BME280;32098;49.448;7.904;2022-09-09T08:12:03;97782.53;;;19.41;59.61
46392;BME280;32098;49.448;7.904;2022-09-09T08:14:30;97774.91;;;19.29;58.88
46392;BME280;32098;49.448;7.904;2022-09-09T08:16:57;97742.91;;;18.80;58.27
46392;BME280;32098;49.448;7.904;2022-09-09T08:19:26;97786.31;;;18.94;59.01
46392;BME280;32098;49.448;7.904;2022-09-09T08:21:57;97787.78;;;18.86;59.84
46392;BME280;32098;49.448;7.904;2022-09-09T08:24:23;97795.16;;;18.99;59.40
46392;BME280;32098;49.448;7.904;2022-09-09T08:26:50;97766.81;;;18.73;59.82
46392;BME280;32098;49.448;7.904;2022-09-09T08:29:21;97796.72;;;18.63;59.27
46392;BME280;32098;49.448;7.904;2022-09-09T08:31:50;97793.38;;;18.71;59.39
46392;BME280;32098;49.448;7.904;2022-09-09T08:34:17;97807.63;;;18.77;58.72
46392;BME280;32098;49.448;7.904;2022-09-09T08:36:49;97800.25;;;18.63;58.66
46392;BME280;32098;49.448;7.904;2022-09-09T08:39:20;97798.03;;;18.47;58.86
46392;BME280;32098;49.448;7.904;2022-09-09T08:41:52;97799.50;;;18.58;59.04
46392;BME280;32098;49.448;7.904;2022-09-09T08:50:28;97810.22;;;19.38;56.28
46392;BME280;32098;49.448;7.904;2022-09-09T08:53:08;97804.19;;;19.59;55.72
46392;BME280;32098;49.448;7.904;2022-09-09T08:55:45;97808.03;;;19.72;54.85
46392;BME280;32098;49.448;7.904;2022-09-09T08:58:21;97800.09;;;19.75;54.89
46392;BME280;32098;49.448;7.904;2022-09-09T09:12:53;97789.94;;;20.63;50.46
46392;BME280;32098;49.448;7.904;2022-09-09T09:15:28;97796.34;;;20.44;51.02
46392;BME280;32098;49.448;7.904;2022-09-09T09:17:58;97800.41;;;19.74;51.46
46392;BME280;32098;49.448;7.904;2022-09-09T09:20:42;97805.75;;;19.60;52.42
46392;BME280;32098;49.448;7.904;2022-09-09T09:23:25;97802.59;;;19.40;52.60
46392;BME280;32098;49.448;7.904;2022-09-09T09:26:00;97805.41;;;19.34;52.95
46392;BME280;32098;49.448;7.904;2022-09-09T09:28:30;97790.59;;;19.46;53.23
46392;BME280;32098;49.448;7.904;2022-09-09T09:31:06;97805.19;;;19.63;53.13
46392;BME280;32098;49.448;7.904;2022-09-09T09:33:44;97799.84;;;19.58;52.72
46392;BME280;32098;49.448;7.904;2022-09-09T09:36:14;97791.59;;;19.50;53.13
46392;BME280;32098;49.448;7.904;2022-09-09T09:38:59;97787.47;;;19.71;53.09
46392;BME280;32098;49.448;7.904;2022-09-09T09:41:46;97786.38;;;20.13;52.57
46392;BME280;32098;49.448;7.904;2022-09-09T09:47:08;97782.28;;;20.78;51.00
46392;BME280;32098;49.448;7.904;2022-09-09T09:49:36;97770.34;;;21.01;49.82
46392;BME280;32098;49.448;7.904;2022-09-09T09:52:21;97779.41;;;20.97;49.58
46392;BME280;32098;49.448;7.904;2022-09-09T09:54:49;97773.66;;;20.76;49.87
46392;BME280;32098;49.448;7.904;2022-09-09T09:57:16;97767.47;;;20.62;51.18
46392;BME280;32098;49.448;7.904;2022-09-09T09:59:46;97768.56;;;20.47;50.41
46392;BME280;32098;49.448;7.904;2022-09-09T10:02:22;97764.56;;;20.18;49.99
46392;BME280;32098;49.448;7.904;2022-09-09T10:07:38;97765.38;;;19.77;50.62
46392;BME280;32098;49.448;7.904;2022-09-09T10:10:05;97767.75;;;19.52;51.29
46392;BME280;32098;49.448;7.904;2022-09-09T10:12:51;97765.22;;;19.55;51.63
46392;BME280;32098;49.448;7.904;2022-09-09T10:15:50;97776.34;;;19.86;51.34
46392;BME280;32098;49.448;7.904;2022-09-09T10:21:20;97765.88;;;20.47;49.40
46392;BME280;32098;49.448;7.904;2022-09-09T10:26:51;97774.22;;;20.87;48.82
46392;BME280;32098;49.448;7.904;2022-09-09T10:34:53;97770.09;;;20.26;49.53
46392;BME280;32098;49.448;7.904;2022-09-09T10:40:32;97762.97;;;20.03;50.04
46392;BME280;32098;49.448;7.904;2022-09-09T10:56:53;97773.66;;;19.54;51.53
46392;BME280;32098;49.448;7.904;2022-09-09T10:59:26;97776.03;;;19.42;53.58
46392;BME280;32098;49.448;7.904;2022-09-09T11:02:02;97774.84;;;19.15;52.25
46392;BME280;32098;49.448;7.904;2022-09-09T11:04:39;97767.31;;;19.12;52.77
46392;BME280;32098;49.448;7.904;2022-09-09T11:07:10;97762.22;;;18.92;53.83
46392;BME280;32098;49.448;7.904;2022-09-09T11:09:45;97775.59;;;18.65;53.41
46392;BME280;32098;49.448;7.904;2022-09-09T11:12:18;97759.56;;;18.50;53.69
46392;BME280;32098;49.448;7.904;2022-09-09T11:14:50;97781.59;;;18.43;54.41
46392;BME280;32098;49.448;7.904;2022-09-09T11:17:22;97761.78;;;18.05;55.41
46392;BME280;32098;49.448;7.904;2022-09-09T11:19:50;97778.63;;;18.21;55.93
46392;BME280;32098;49.448;7.904;2022-09-09T11:22:24;97771.00;;;18.47;55.66
46392;BME280;32098;49.448;7.904;2022-09-09T11:27:26;97769.59;;;19.05;54.61
46392;BME280;32098;49.448;7.904;2022-09-09T11:38:21;97771.88;;;19.63;50.25
46392;BME280;32098;49.448;7.904;2022-09-09T11:41:01;97778.91;;;19.77;50.12
46392;BME280;32098;49.448;7.904;2022-09-09T11:46:10;97775.72;;;20.16;49.68
46392;BME280;32098;49.448;7.904;2022-09-09T11:48:40;97765.38;;;20.18;49.82
46392;BME280;32098;49.448;7.904;2022-09-09T11:51:24;97766.41;;;20.36;49.36
46392;BME280;32098;49.448;7.904;2022-09-09T11:53:53;97763.47;;;20.46;48.92
46392;BME280;32098;49.448;7.904;2022-09-09T11:56:29;97755.34;;;20.46;48.83
46392;BME280;32098;49.448;7.904;2022-09-09T11:59:05;97750.63;;;20.38;48.45
46392;BME280;32098;49.448;7.904;2022-09-09T12:04:14;97754.03;;;20.16;48.82
46392;BME280;32098;49.448;7.904;2022-09-09T12:06:54;97764.00;;;20.07;49.96
46392;BME280;32098;49.448;7.904;2022-09-09T12:17:19;97778.91;;;19.64;50.60
46392;BME280;32098;49.448;7.904;2022-09-09T12:19:47;97766.88;;;19.70;50.87
46392;BME280;32098;49.448;7.904;2022-09-09T12:22:27;97785.66;;;19.66;52.08
46392;BME280;32098;49.448;7.904;2022-09-09T12:28:02;97826.69;;;18.48;54.63
46392;BME280;32098;49.448;7.904;2022-09-09T12:30:44;97826.59;;;18.11;58.00
46392;BME280;32098;49.448;7.904;2022-09-09T12:33:17;97813.47;;;17.70;60.17
46392;BME280;32098;49.448;7.904;2022-09-09T12:35:50;97822.75;;;17.30;62.15
46392;BME280;32098;49.448;7.904;2022-09-09T12:38:37;97818.72;;;17.28;64.57
46392;BME280;32098;49.448;7.904;2022-09-09T12:41:04;97788.00;;;17.19;63.55
46392;BME280;32098;49.448;7.904;2022-09-09T12:43:31;97711.94;;;16.83;64.23
46392;BME280;32098;49.448;7.904;2022-09-09T12:46:02;97779.94;;;17.48;65.56
46392;BME280;32098;49.448;7.904;2022-09-09T12:48:34;97787.06;;;17.38;63.70
46392;BME280;32098;49.448;7.904;2022-09-09T12:51:05;97777.03;;;17.44;65.99
46392;BME280;32098;49.448;7.904;2022-09-09T12:53:35;97778.44;;;17.36;64.89
46392;BME280;32098;49.448;7.904;2022-09-09T12:56:08;97781.09;;;17.41;65.43
46392;BME280;32098;49.448;7.904;2022-09-09T12:58:37;97773.88;;;17.61;66.41
46392;BME280;32098;49.448;7.904;2022-09-09T13:01:05;97761.59;;;17.73;65.75
46392;BME280;32098;49.448;7.904;2022-09-09T13:03:33;97752.28;;;17.84;66.30
46392;BME280;32098;49.448;7.904;2022-09-09T13:06:18;97754.53;;;18.01;65.96
46392;BME280;32098;49.448;7.904;2022-09-09T13:08:45;97742.81;;;18.11;64.50
46392;BME280;32098;49.448;7.904;2022-09-09T13:11:39;97740.22;;;18.24;64.79
46392;BME280;32098;49.448;7.904;2022-09-09T13:14:28;97739.63;;;18.27;64.78
46392;BME280;32098;49.448;7.904;2022-09-09T13:17:00;97743.19;;;18.23;66.04
46392;BME280;32098;49.448;7.904;2022-09-09T13:19:33;97692.84;;;17.84;65.29
46392;BME280;32098;49.448;7.904;2022-09-09T13:22:19;97696.16;;;17.81;65.69
46392;BME280;32098;49.448;7.904;2022-09-09T13:24:46;97740.50;;;17.75;66.02
46392;BME280;32098;49.448;7.904;2022-09-09T13:27:32;97749.22;;;17.67;65.84
46392;BME280;32098;49.448;7.904;2022-09-09T13:30:00;97745.91;;;17.75;66.59
46392;BME280;32098;49.448;7.904;2022-09-09T13:32:27;97740.00;;;17.73;66.68
46392;BME280;32098;49.448;7.904;2022-09-09T13:34:56;97725.84;;;17.81;67.88
46392;BME280;32098;49.448;7.904;2022-09-09T13:37:34;97751.44;;;18.13;68.50
46392;BME280;32098;49.448;7.904;2022-09-09T13:40:06;97742.47;;;18.36;66.39
46392;BME280;32098;49.448;7.904;2022-09-09T13:42:41;97741.00;;;18.62;66.31
46392;BME280;32098;49.448;7.904;2022-09-09T13:45:18;97736.91;;;18.83;63.45
46392;BME280;32098;49.448;7.904;2022-09-09T13:47:47;97728.50;;;19.03;62.94
46392;BME280;32098;49.448;7.904;2022-09-09T13:52:49;97719.72;;;19.11;61.66
46392;BME280;32098;49.448;7.904;2022-09-09T13:55:18;97717.97;;;19.02;59.65
46392;BME280;32098;49.448;7.904;2022-09-09T13:57:56;97719.53;;;18.89;60.63
46392;BME280;32098;49.448;7.904;2022-09-09T14:00:23;97723.97;;;18.80;60.58
46392;BME280;32098;49.448;7.904;2022-09-09T14:02:50;97719.81;;;18.69;61.54
46392;BME280;32098;49.448;7.904;2022-09-09T14:05:18;97728.88;;;18.78;62.45
46392;BME280;32098;49.448;7.904;2022-09-09T14:07:45;97729.47;;;18.75;61.85
46392;BME280;32098;49.448;7.904;2022-09-09T14:10:17;97741.66;;;18.72;63.59
46392;BME280;32098;49.448;7.904;2022-09-09T14:12:44;97753.38;;;18.68;62.03
46392;BME280;32098;49.448;7.904;2022-09-09T14:15:11;97755.50;;;18.71;61.68
46392;BME280;32098;49.448;7.904;2022-09-09T14:17:38;97763.63;;;18.71;61.31
46392;BME280;32098;49.448;7.904;2022-09-09T14:20:06;97752.44;;;18.59;61.24
46392;BME280;32098;49.448;7.904;2022-09-09T14:22:36;97750.38;;;18.51;61.53
46392;BME280;32098;49.448;7.904;2022-09-09T14:25:03;97751.47;;;18.50;61.79
46392;BME280;32098;49.448;7.904;2022-09-09T14:27:30;97744.16;;;18.50;61.56
46392;BME280;32098;49.448;7.904;2022-09-09T14:29:56;97754.03;;;18.41;61.57
46392;BME280;32098;49.448;7.904;2022-09-09T14:32:24;97729.53;;;18.14;61.39
46392;BME280;32098;49.448;7.904;2022-09-09T14:34:50;97745.16;;;18.17;61.59
46392;BME280;32098;49.448;7.904;2022-09-09T14:37:17;97737.09;;;18.12;60.65
46392;BME280;32098;49.448;7.904;2022-09-09T14:39:44;97717.63;;;17.91;59.14
46392;BME280;32098;49.448;7.904;2022-09-09T14:42:11;97744.28;;;17.74;57.97
46392;BME280;32098;49.448;7.904;2022-09-09T14:44:37;97664.31;;;17.31;58.30
46392;BME280;32098;49.448;7.904;2022-09-09T14:47:05;97748.25;;;17.82;58.75
46392;BME280;32098;49.448;7.904;2022-09-09T14:49:32;97702.09;;;17.55;59.09
46392;BME280;32098;49.448;7.904;2022-09-09T14:51:58;97727.16;;;17.60;58.59
46392;BME280;32098;49.448;7.904;2022-09-09T14:54:25;97705.25;;;17.38;58.61
46392;BME280;32098;49.448;7.904;2022-09-09T14:56:52;97725.63;;;17.54;58.85
46392;BME280;32098;49.448;7.904;2022-09-09T14:59:18;97726.94;;;17.57;58.99
46392;BME280;32098;49.448;7.904;2022-09-09T15:01:46;97729.00;;;17.41;58.08
46392;BME280;32098;49.448;7.904;2022-09-09T15:04:12;97721.81;;;17.55;58.19
46392;BME280;32098;49.448;7.904;2022-09-09T15:06:41;97718.38;;;17.73;57.83
46392;BME280;32098;49.448;7.904;2022-09-09T15:09:09;97716.13;;;17.80;57.39
46392;BME280;32098;49.448;7.904;2022-09-09T15:11:37;97711.00;;;17.55;56.33
46392;BME280;32098;49.448;7.904;2022-09-09T15:14:05;97711.47;;;17.62;56.54
46392;BME280;32098;49.448;7.904;2022-09-09T15:16:32;97696.19;;;17.76;56.38
46392;BME280;32098;49.448;7.904;2022-09-09T15:19:00;97691.31;;;17.55;56.01
46392;BME280;32098;49.448;7.904;2022-09-09T15:21:29;97701.03;;;17.56;56.53
46392;BME280;32098;49.448;7.904;2022-09-09T15:23:57;97698.19;;;17.42;56.88
46392;BME280;32098;49.448;7.904;2022-09-09T15:26:24;97712.63;;;17.56;57.05
46392;BME280;32098;49.448;7.904;2022-09-09T15:28:51;97709.31;;;17.64;57.16
46392;BME280;32098;49.448;7.904;2022-09-09T15:31:21;97709.88;;;17.61;57.60